Time;durP1;ratioP1;P1;durP2;ratioP2;P2;SDS_P1;SDS_P2;PMS_P1;PMS_P2;Temp;Humidity;BMP_temperature;BMP_pressure;BME280_temperature;BME280_humidity;BME280_pressure;Samples;Min_cycle;Max_cycle;Signal;HPM_P1;HPM_P2
2022/09/16 00:01:51;;;;;;;5.40;2.80;;;;;;;12.88;77.92;98852.57;130408;1267;107704;-75
2022/09/16 00:04:57;;;;;;;4.90;3.00;;;;;;;12.86;77.88;98850.30;130408;1268;108685;-75
2022/09/16 00:08:03;;;;;;;5.10;2.50;;;;;;;12.82;77.90;98851.70;130401;1268;108736;-75
2022/09/16 00:11:08;;;;;;;4.70;2.40;;;;;;;12.77;78.07;98849.70;130454;1267;108746;-75
2022/09/16 00:14:15;;;;;;;4.40;2.40;;;;;;;12.73;78.06;98855.45;130401;1268;106825;-75
2022/09/16 00:17:21;;;;;;;4.70;2.40;;;;;;;12.71;78.17;98856.89;130489;1268;108782;-76
2022/09/16 00:20:26;;;;;;;3.60;2.40;;;;;;;12.72;78.18;98858.58;130368;1267;108823;-75
2022/09/16 00:23:33;;;;;;;4.20;2.50;;;;;;;12.74;78.11;98863.85;130356;1268;108850;-75
2022/09/16 00:26:39;;;;;;;4.80;2.20;;;;;;;12.73;78.20;98864.30;130395;1268;108676;-75
2022/09/16 00:29:44;;;;;;;5.80;3.00;;;;;;;12.73;78.22;98858.62;130408;1267;108700;-75
2022/09/16 00:32:50;;;;;;;4.80;2.80;;;;;;;12.74;78.27;98861.05;130482;1267;108774;-76
2022/09/16 00:36:06;;;;;;;5.80;2.30;;;;;;;12.71;78.43;98857.95;130370;1267;107218;-76
2022/09/16 00:39:12;;;;;;;4.20;2.20;;;;;;;12.73;78.59;98860.27;130418;1268;108663;-76
2022/09/16 00:42:18;;;;;;;4.60;2.60;;;;;;;12.75;78.57;98861.80;130401;1268;108677;-76
2022/09/16 00:45:30;;;;;;;4.60;2.80;;;;;;;12.77;78.71;98860.66;130418;1268;108931;-76
2022/09/16 00:48:35;;;;;;;4.60;3.10;;;;;;;12.79;78.80;98857.86;130343;1268;108981;-76
2022/09/16 00:51:46;;;;;;;5.30;3.80;;;;;;;12.82;78.71;98856.92;130452;1268;108493;-75
2022/09/16 00:54:52;;;;;;;3.50;2.60;;;;;;;12.83;78.59;98854.50;130351;1268;108738;-76
2022/09/16 00:58:04;;;;;;;5.00;2.70;;;;;;;12.81;78.68;98858.73;130406;1268;108862;-75
2022/09/16 01:01:08;;;;;;;;;;;;;;;12.77;78.76;98862.59;129112;1268;1674189;-75
2022/09/16 01:04:19;;;;;;;3.60;2.40;;;;;;;12.75;78.89;98866.05;130435;1268;108830;-75
2022/09/16 01:07:31;;;;;;;4.70;3.00;;;;;;;12.75;79.13;98868.14;130385;1268;108729;-76
2022/09/16 01:10:37;;;;;;;6.10;2.80;;;;;;;12.79;79.01;98867.87;130415;1268;108683;-75
2022/09/16 01:13:44;;;;;;;6.50;3.20;;;;;;;12.82;78.99;98870.95;130292;1268;108646;-75
2022/09/16 01:16:58;;;;;;;4.10;3.00;;;;;;;12.84;79.06;98871.71;130409;1268;108908;-76
2022/09/16 01:20:49;;;;;;;5.20;3.30;;;;;;;12.82;79.09;98876.29;130441;1268;108736;-75
2022/09/16 01:24:43;;;;;;;5.50;3.10;;;;;;;12.76;79.04;98872.14;130340;1268;108640;-76
2022/09/16 01:28:21;;;;;;;4.50;3.30;;;;;;;12.69;79.20;98879.73;130347;1268;108656;-75
2022/09/16 01:31:33;;;;;;;5.90;2.70;;;;;;;12.62;79.58;98883.16;130377;1268;108913;-75
2022/09/16 01:34:49;;;;;;;5.30;3.10;;;;;;;12.59;79.52;98885.79;130474;1268;108896;-76
2022/09/16 01:38:04;;;;;;;5.70;3.00;;;;;;;12.61;79.65;98886.16;130380;1268;108712;-75
2022/09/16 01:41:15;;;;;;;3.80;2.90;;;;;;;12.63;79.43;98883.34;130407;1268;108633;-75
2022/09/16 01:44:28;;;;;;;5.50;3.10;;;;;;;12.67;79.50;98883.59;130386;1268;108826;-75
2022/09/16 01:47:36;;;;;;;;;;;;;;;12.67;79.44;98885.73;130181;1268;107833;-76
2022/09/16 01:50:47;;;;;;;4.90;2.90;;;;;;;12.68;79.57;98884.27;130321;1268;108691;-75
2022/09/16 01:54:02;;;;;;;4.90;2.90;;;;;;;12.65;79.45;98885.77;130338;1268;107673;-75
2022/09/16 01:57:12;;;;;;;3.20;2.30;;;;;;;12.63;79.53;98887.95;130359;1268;107090;-76
2022/09/16 02:00:18;;;;;;;10.20;2.80;;;;;;;12.66;79.51;98895.13;130245;1268;109050;-75
2022/09/16 02:03:28;;;;;;;4.10;2.50;;;;;;;12.70;79.57;98892.95;130473;1268;107784;-75
2022/09/16 02:06:36;;;;;;;5.70;2.80;;;;;;;12.73;79.37;98897.66;130415;1268;108455;-73
2022/09/16 02:09:46;;;;;;;4.10;2.90;;;;;;;12.71;79.58;98896.87;130532;1268;108731;-77
2022/09/16 02:12:57;;;;;;;4.60;2.80;;;;;;;12.66;79.55;98898.42;130377;1268;108754;-74
2022/09/16 02:16:10;;;;;;;7.20;3.20;;;;;;;12.63;79.54;98897.13;130389;1267;108553;-75
2022/09/16 02:19:20;;;;;;;4.20;2.80;;;;;;;12.57;79.65;98889.65;130432;1268;108897;-75
2022/09/16 02:22:31;;;;;;;4.00;2.60;;;;;;;12.53;79.71;98889.05;130518;1268;109169;-75
2022/09/16 02:25:39;;;;;;;4.50;3.00;;;;;;;12.51;79.86;98892.35;130419;1268;107129;-75
2022/09/16 02:28:50;;;;;;;4.10;2.90;;;;;;;12.51;79.65;98892.74;130308;1268;108760;-76
2022/09/16 02:32:01;;;;;;;4.80;3.20;;;;;;;12.48;79.76;98898.58;130400;1268;108701;-75
2022/09/16 02:35:10;;;;;;;4.00;3.00;;;;;;;12.45;79.78;98901.57;130440;1268;109090;-75
2022/09/16 02:38:21;;;;;;;4.60;2.90;;;;;;;12.38;79.93;98899.03;130402;1268;107999;-75
2022/09/16 02:41:27;;;;;;;3.80;2.60;;;;;;;12.32;79.85;98895.66;130362;1268;109808;-75
2022/09/16 02:44:33;;;;;;;5.20;2.90;;;;;;;12.29;79.81;98892.40;130426;1268;108955;-78
2022/09/16 02:47:54;;;;;;;4.70;3.20;;;;;;;12.28;80.21;98895.52;130451;1268;108285;-77
2022/09/16 02:51:12;;;;;;;4.70;3.50;;;;;;;12.28;80.23;98892.27;130419;1268;108597;-77
2022/09/16 02:54:25;;;;;;;4.40;3.10;;;;;;;12.28;80.14;98894.69;130390;1268;108698;-75
2022/09/16 02:57:31;;;;;;;4.10;3.40;;;;;;;12.24;80.24;98899.91;130447;1268;108592;-73
2022/09/16 03:00:41;;;;;;;4.50;3.10;;;;;;;12.19;80.44;98905.60;130396;1268;108998;-72
2022/09/16 03:03:46;;;;;;;5.00;2.60;;;;;;;12.15;80.42;98906.31;130365;1268;108687;-73
2022/09/16 03:06:52;;;;;;;4.00;3.50;;;;;;;12.12;80.26;98902.88;130396;1268;108706;-73
2022/09/16 03:09:58;;;;;;;4.70;3.20;;;;;;;12.10;80.54;98906.04;130399;1268;108655;-73
2022/09/16 03:13:12;;;;;;;4.30;3.10;;;;;;;12.08;80.36;98902.02;130305;1268;109035;-73
2022/09/16 03:16:24;;;;;;;3.70;2.90;;;;;;;12.07;80.34;98905.55;130355;1268;108894;-73
2022/09/16 03:19:36;;;;;;;5.60;3.30;;;;;;;12.05;80.56;98912.95;130408;1268;108756;-73
2022/09/16 03:22:51;;;;;;;4.70;3.10;;;;;;;12.00;80.54;98916.42;130430;1268;109233;-73
2022/09/16 03:26:06;;;;;;;4.30;2.70;;;;;;;11.96;80.66;98917.34;130258;1268;108583;-73
2022/09/16 03:29:18;;;;;;;6.10;3.00;;;;;;;11.95;80.71;98919.09;130406;1268;108750;-73
2022/09/16 03:32:24;;;;;;;;;;;;;;;11.95;80.68;98918.02;130362;1268;107663;-73
2022/09/16 03:35:37;;;;;;;4.90;2.90;;;;;;;11.97;80.38;98918.73;130368;1268;109768;-73
2022/09/16 03:38:44;;;;;;;6.70;2.70;;;;;;;11.94;80.72;98918.71;130466;1268;108719;-73
2022/09/16 03:41:49;;;;;;;4.10;2.60;;;;;;;11.91;80.64;98924.28;130418;1268;108973;-74
2022/09/16 03:44:55;;;;;;;4.30;2.60;;;;;;;11.86;80.58;98924.55;130247;1268;107663;-73
2022/09/16 03:48:00;;;;;;;3.60;2.70;;;;;;;11.84;80.44;98927.52;130417;1268;108970;-73
2022/09/16 03:51:06;;;;;;;4.00;2.60;;;;;;;11.86;80.83;98927.17;130390;1268;108722;-74
2022/09/16 03:54:11;;;;;;;3.30;2.40;;;;;;;11.93;80.93;98924.88;130335;1268;108889;-73
2022/09/16 03:57:16;;;;;;;4.40;2.90;;;;;;;11.99;80.87;98920.64;130344;1268;108927;-73
2022/09/16 04:00:22;;;;;;;4.20;2.90;;;;;;;12.01;80.80;98925.92;130467;1268;108752;-73
2022/09/16 04:03:27;;;;;;;12.00;2.70;;;;;;;11.96;80.74;98932.14;130429;1267;108725;-73
2022/09/16 04:06:33;;;;;;;4.70;2.30;;;;;;;11.90;80.78;98932.45;130410;1268;107551;-73
2022/09/16 04:09:38;;;;;;;4.30;2.40;;;;;;;11.84;81.00;98932.27;130405;1268;109133;-73
2022/09/16 04:12:44;;;;;;;3.20;2.30;;;;;;;11.80;80.93;98929.71;130447;1268;108828;-73
2022/09/16 04:15:49;;;;;;;3.20;2.50;;;;;;;11.81;81.04;98936.10;130358;1268;109045;-72
2022/09/16 04:18:55;;;;;;;3.90;3.00;;;;;;;11.80;80.79;98938.29;130457;1268;108713;-72
2022/09/16 04:22:00;;;;;;;5.40;3.00;;;;;;;11.81;80.86;98940.87;130384;1268;108655;-73
2022/09/16 04:25:08;;;;;;;5.80;2.90;;;;;;;11.79;81.03;98937.11;130368;1268;109320;-73
2022/09/16 04:28:14;;;;;;;3.40;2.60;;;;;;;11.78;81.03;98927.86;130367;1268;108607;-73
2022/09/16 04:31:19;;;;;;;4.30;3.00;;;;;;;11.78;81.50;98921.23;130369;1268;109130;-73
2022/09/16 04:34:25;;;;;;;3.40;2.60;;;;;;;11.80;81.63;98924.17;130427;1268;108973;-74
2022/09/16 04:37:32;;;;;;;3.80;2.40;;;;;;;11.86;81.34;98925.29;130363;1268;108671;-73
2022/09/16 04:40:38;;;;;;;3.40;2.40;;;;;;;11.93;81.40;98930.27;130427;1268;107322;-73
2022/09/16 04:43:44;;;;;;;4.60;2.60;;;;;;;11.98;81.24;98931.41;130396;1268;107455;-74
2022/09/16 04:46:49;;;;;;;3.10;2.20;;;;;;;12.00;81.21;98931.88;130214;1268;108751;-75
2022/09/16 04:49:55;;;;;;;3.10;2.20;;;;;;;12.03;81.36;98933.59;130331;1268;108976;-73
2022/09/16 04:53:00;;;;;;;3.40;2.20;;;;;;;12.09;81.22;98933.02;130445;1268;107756;-73
2022/09/16 04:56:08;;;;;;;3.60;2.20;;;;;;;12.17;81.51;98935.23;130457;1268;108589;-73
2022/09/16 04:59:14;;;;;;;2.20;2.00;;;;;;;12.25;81.22;98935.12;130385;1268;108831;-73
2022/09/16 05:02:19;;;;;;;2.90;2.20;;;;;;;12.29;81.29;98931.94;130475;1268;108917;-70
2022/09/16 05:05:24;;;;;;;4.00;2.10;;;;;;;12.33;81.02;98933.61;130387;1268;108785;-70
2022/09/16 05:08:31;;;;;;;4.00;2.30;;;;;;;12.29;81.13;98940.84;130282;1268;109693;-71
2022/09/16 05:11:38;;;;;;;4.40;2.00;;;;;;;12.24;81.19;98943.27;130366;1268;109039;-71
2022/09/16 05:14:44;;;;;;;3.40;1.90;;;;;;;12.22;81.08;98943.09;130336;1268;108777;-71
2022/09/16 05:17:50;;;;;;;4.90;1.90;;;;;;;12.21;81.19;98941.59;130186;1268;108873;-70
2022/09/16 05:21:00;;;;;;;4.40;2.10;;;;;;;12.25;81.21;98944.30;130134;1268;108272;-71
2022/09/16 05:24:08;;;;;;;3.40;2.00;;;;;;;12.32;81.12;98941.30;130218;1268;108925;-70
2022/09/16 05:27:13;;;;;;;3.30;1.90;;;;;;;12.42;81.22;98942.06;130297;1268;109963;-69
2022/09/16 05:30:19;;;;;;;2.90;1.80;;;;;;;12.47;81.17;98943.11;130434;1267;109576;-69
2022/09/16 05:33:25;;;;;;;3.80;1.80;;;;;;;12.52;81.07;98944.16;130313;1268;108716;-71
2022/09/16 05:36:32;;;;;;;2.80;1.60;;;;;;;12.51;81.06;98942.23;130337;1267;108622;-72
2022/09/16 05:39:38;;;;;;;2.20;1.90;;;;;;;12.57;81.19;98947.05;130427;1268;108718;-72
2022/09/16 05:42:43;;;;;;;2.20;1.60;;;;;;;12.66;81.11;98945.68;130373;1268;108587;-71
2022/09/16 05:45:53;;;;;;;4.00;2.00;;;;;;;12.81;80.98;98940.48;130374;1268;108624;-70
2022/09/16 05:48:59;;;;;;;4.90;2.30;;;;;;;12.84;80.80;98933.06;130352;1268;107536;-70
2022/09/16 05:52:04;;;;;;;4.40;2.30;;;;;;;12.87;80.74;98935.39;130258;1268;107036;-70
2022/09/16 05:55:10;;;;;;;3.70;1.70;;;;;;;12.89;80.90;98931.81;130219;1268;108650;-71
2022/09/16 05:58:16;;;;;;;2.70;1.90;;;;;;;12.96;80.67;98934.85;130199;1268;107708;-71
2022/09/16 06:01:23;;;;;;;3.50;1.70;;;;;;;13.01;80.58;98928.52;130301;1268;108860;-71
2022/09/16 06:04:29;;;;;;;3.70;2.20;;;;;;;13.05;80.50;98933.97;130188;1268;108732;-71
2022/09/16 06:07:35;;;;;;;5.30;2.20;;;;;;;13.08;80.39;98935.30;130345;1268;107581;-71
2022/09/16 06:10:41;;;;;;;4.40;1.80;;;;;;;13.09;80.18;98933.41;130398;1268;107043;-71
2022/09/16 06:13:47;;;;;;;3.60;1.90;;;;;;;13.06;80.17;98928.24;130376;1267;108991;-71
2022/09/16 06:16:53;;;;;;;4.30;2.00;;;;;;;13.00;79.75;98933.46;130261;1268;108563;-70
2022/09/16 06:19:58;;;;;;;3.50;1.60;;;;;;;12.92;80.02;98934.42;130146;1267;107762;-70
2022/09/16 06:23:04;;;;;;;4.70;2.10;;;;;;;12.88;79.95;98938.11;130129;1268;109603;-71
2022/09/16 06:26:13;;;;;;;3.40;1.40;;;;;;;12.91;79.92;98934.45;130106;1268;109529;-71
2022/09/16 06:29:18;;;;;;;6.10;1.70;;;;;;;12.97;79.82;98931.91;130227;1268;108689;-71
2022/09/16 06:32:24;;;;;;;3.30;1.60;;;;;;;13.05;79.50;98936.44;130378;1268;107780;-71
2022/09/16 06:35:29;;;;;;;3.60;1.60;;;;;;;13.02;78.89;98934.42;130405;1268;108670;-70
2022/09/16 06:38:35;;;;;;;5.50;1.70;;;;;;;13.03;78.99;98929.23;130323;1267;108910;-70
2022/09/16 06:41:40;;;;;;;2.90;1.80;;;;;;;13.08;79.15;98933.36;130287;1267;108650;-71
2022/09/16 06:44:45;;;;;;;6.40;1.90;;;;;;;13.12;78.66;98928.79;130308;1267;109038;-70
2022/09/16 06:47:50;;;;;;;4.20;1.80;;;;;;;13.14;78.14;98929.76;130190;1268;108758;-70
2022/09/16 06:51:04;;;;;;;4.20;1.90;;;;;;;13.17;78.15;98932.27;130230;1267;108719;-70
2022/09/16 06:54:10;;;;;;;4.90;1.40;;;;;;;13.28;78.61;98930.04;130274;1267;108846;-71
2022/09/16 06:57:16;;;;;;;4.80;1.80;;;;;;;13.30;77.92;98938.23;130178;1267;108755;-70
2022/09/16 07:00:22;;;;;;;2.60;1.70;;;;;;;13.42;78.10;98941.95;130248;1267;108617;-71
2022/09/16 07:03:27;;;;;;;2.60;1.60;;;;;;;13.53;77.30;98946.46;130218;1268;106904;-71
2022/09/16 07:06:34;;;;;;;3.00;1.50;;;;;;;13.50;77.22;98948.89;130301;1268;108890;-71
2022/09/16 07:09:40;;;;;;;4.30;1.80;;;;;;;13.61;77.91;98958.02;130380;1268;108832;-74
2022/09/16 07:12:45;;;;;;;3.30;1.40;;;;;;;13.76;77.17;98958.93;130361;1268;108933;-71
2022/09/16 07:15:51;;;;;;;3.00;1.50;;;;;;;13.79;76.36;98961.99;130263;1268;108954;-71
2022/09/16 07:18:57;;;;;;;4.60;1.40;;;;;;;13.86;76.95;98963.92;130403;1267;108779;-71
2022/09/16 07:22:03;;;;;;;3.70;1.80;;;;;;;13.90;76.02;98969.13;130358;1268;108067;-70
2022/09/16 07:25:09;;;;;;;6.20;1.50;;;;;;;13.93;75.95;98975.35;130320;1267;108949;-71
2022/09/16 07:28:14;;;;;;;5.10;1.30;;;;;;;14.02;75.60;98973.75;130418;1268;108788;-71
2022/09/16 07:31:23;;;;;;;3.90;1.20;;;;;;;14.11;75.70;98971.42;130396;1268;108770;-72
2022/09/16 07:34:28;;;;;;;3.90;1.40;;;;;;;14.19;75.14;98971.72;130367;1268;108903;-72
2022/09/16 07:37:34;;;;;;;3.30;1.70;;;;;;;14.24;74.27;98973.70;130466;1267;108730;-71
2022/09/16 07:40:40;;;;;;;4.60;1.40;;;;;;;14.36;75.12;98970.99;130255;1268;108570;-70
2022/09/16 07:43:46;;;;;;;4.70;1.40;;;;;;;14.39;74.12;98972.77;130417;1267;109266;-72
2022/09/16 07:46:54;;;;;;;3.00;1.50;;;;;;;14.43;73.64;98966.76;130432;1268;108793;-72
2022/09/16 07:50:00;;;;;;;4.70;1.30;;;;;;;14.48;73.45;98969.73;130347;1268;108675;-71
2022/09/16 07:53:06;;;;;;;5.70;1.40;;;;;;;14.49;74.01;98972.00;130320;1267;107575;-73
2022/09/16 07:56:17;;;;;;;3.20;1.30;;;;;;;14.60;74.05;98977.45;130632;1267;107681;-72
2022/09/16 07:59:24;;;;;;;4.20;1.30;;;;;;;14.64;73.64;98973.02;130231;1268;108652;-72
2022/09/16 08:02:29;;;;;;;4.20;1.20;;;;;;;14.75;73.74;98973.86;130450;1268;108980;-72
2022/09/16 08:05:37;;;;;;;3.90;1.10;;;;;;;14.82;72.49;98970.98;130478;1268;108741;-72
2022/09/16 08:08:48;;;;;;;5.90;2.00;;;;;;;14.73;72.76;98970.01;130327;1268;108636;-72
2022/09/16 08:11:53;;;;;;;5.40;1.40;;;;;;;14.84;73.67;98962.95;130356;1268;107752;-71
2022/09/16 08:14:59;;;;;;;3.10;1.40;;;;;;;14.87;71.52;98965.38;130472;1268;108731;-71
2022/09/16 08:18:04;;;;;;;2.50;1.10;;;;;;;14.99;71.74;98963.64;130452;1268;108751;-72
2022/09/16 08:21:11;;;;;;;4.40;1.10;;;;;;;15.13;72.26;98964.27;130410;1266;107674;-72
2022/09/16 08:24:17;;;;;;;2.70;1.10;;;;;;;15.20;71.76;98967.42;130384;1268;108775;-72
2022/09/16 08:27:22;;;;;;;4.60;1.60;;;;;;;15.25;72.06;98967.85;132055;1267;108778;-72
2022/09/16 08:30:27;;;;;;;3.40;1.00;;;;;;;15.38;70.82;98964.77;130381;1267;108804;-72
2022/09/16 08:33:33;;;;;;;4.10;1.40;;;;;;;15.42;69.88;98956.34;130438;1268;108645;-73
2022/09/16 08:36:38;;;;;;;3.20;1.00;;;;;;;15.39;70.10;98963.39;130304;1268;108852;-72
2022/09/16 08:39:44;;;;;;;2.70;1.10;;;;;;;15.34;69.95;98964.13;130345;1267;108863;-71
2022/09/16 08:43:04;;;;;;;3.50;1.30;;;;;;;15.52;70.38;98964.10;130361;1267;108679;-71
2022/09/16 08:46:17;;;;;;;4.20;1.10;;;;;;;15.73;70.72;98960.08;130325;1268;108861;-72
2022/09/16 08:49:30;;;;;;;3.50;1.00;;;;;;;15.80;70.45;98958.23;130453;1268;108659;-72
2022/09/16 08:52:39;;;;;;;4.00;1.10;;;;;;;15.85;70.42;98959.95;130262;1267;108573;-71
2022/09/16 08:55:48;;;;;;;3.30;1.20;;;;;;;15.99;70.08;98968.61;130470;1268;108919;-72
2022/09/16 08:58:59;;;;;;;4.90;1.10;;;;;;;16.00;69.76;98965.75;130392;1267;108478;-72
2022/09/16 09:02:23;;;;;;;3.10;1.30;;;;;;;16.03;69.60;98966.66;130364;1268;108874;-71
2022/09/16 09:05:38;;;;;;;3.70;1.20;;;;;;;16.09;69.06;98966.53;130425;1268;107812;-72
2022/09/16 09:08:51;;;;;;;3.10;1.00;;;;;;;16.13;68.89;98965.56;130351;1268;109584;-74
2022/09/16 09:11:59;;;;;;;;;;;;;;;16.12;68.79;98964.20;130397;1268;108497;-72
2022/09/16 09:15:21;;;;;;;2.90;1.10;;;;;;;15.96;67.38;98962.73;130389;1268;108678;-72
2022/09/16 09:18:39;;;;;;;2.50;1.30;;;;;;;15.82;67.83;98960.77;130508;1268;108790;-72
2022/09/16 09:21:53;;;;;;;3.80;1.50;;;;;;;15.84;67.26;98961.32;130332;1268;108692;-72
2022/09/16 09:25:17;;;;;;;5.10;1.50;;;;;;;15.86;66.77;98958.21;130459;1268;107793;-72
2022/09/16 09:28:44;;;;;;;3.00;1.40;;;;;;;15.73;65.40;98954.64;130312;1268;108843;-73
2022/09/16 09:31:57;;;;;;;2.30;1.40;;;;;;;15.82;65.63;98955.10;130381;1267;108869;-72
2022/09/16 09:35:21;;;;;;;2.80;1.50;;;;;;;16.12;64.53;98949.04;130376;1267;109487;-72
2022/09/16 09:38:43;;;;;;;2.60;1.40;;;;;;;16.45;65.31;98951.16;130449;1268;107436;-72
2022/09/16 09:41:52;;;;;;;2.90;1.40;;;;;;;16.53;66.68;98953.56;130429;1267;108402;-72
2022/09/16 09:45:03;;;;;;;3.10;1.40;;;;;;;16.58;65.81;98963.23;130366;1267;108720;-72
2022/09/16 09:48:18;;;;;;;4.90;1.30;;;;;;;16.55;66.00;98962.83;130414;1267;108741;-72
2022/09/16 09:51:28;;;;;;;3.30;1.50;;;;;;;16.36;64.52;98966.78;130412;1267;108645;-72
2022/09/16 09:54:36;;;;;;;3.50;1.70;;;;;;;16.04;65.01;98973.99;130342;1267;109068;-73
2022/09/16 09:58:01;;;;;;;3.60;1.50;;;;;;;15.87;65.05;98972.35;130379;1267;108797;-72
2022/09/16 10:01:08;;;;;;;4.90;1.70;;;;;;;15.73;66.22;98969.52;130389;1267;108490;-73
2022/09/16 10:04:16;;;;;;;3.10;1.20;;;;;;;15.68;66.50;98968.49;130451;1267;108569;-74
2022/09/16 10:07:24;;;;;;;4.30;2.10;;;;;;;15.64;66.83;98966.70;130430;1268;107955;-73
2022/09/16 10:10:34;;;;;;;5.00;2.10;;;;;;;15.59;67.61;98964.75;130225;1268;108723;-71
2022/09/16 10:13:50;;;;;;;5.60;2.50;;;;;;;15.48;66.83;98964.66;130320;1268;108693;-71
2022/09/16 10:16:57;;;;;;;6.20;2.70;;;;;;;15.40;67.26;98962.15;130422;1267;108832;-72
2022/09/16 10:20:08;;;;;;;4.50;2.20;;;;;;;15.47;67.41;98964.91;130370;1268;108573;-72
2022/09/16 10:23:20;;;;;;;2.20;1.60;;;;;;;15.58;67.19;98960.91;130402;1268;108817;-71
2022/09/16 10:26:28;;;;;;;3.70;1.80;;;;;;;15.74;66.97;98959.95;130355;1268;108758;-73
2022/09/16 10:29:33;;;;;;;2.60;1.70;;;;;;;15.80;66.76;98954.41;130339;1267;108860;-71
2022/09/16 10:32:47;;;;;;;3.10;1.40;;;;;;;15.89;67.04;98957.77;130385;1267;108659;-73
2022/09/16 10:36:00;;;;;;;4.50;1.30;;;;;;;16.22;66.19;98955.86;130442;1268;108123;-73
2022/09/16 10:39:06;;;;;;;2.80;1.40;;;;;;;16.55;65.44;98958.73;130371;1267;108785;-73
2022/09/16 10:42:21;;;;;;;1.50;1.10;;;;;;;16.82;65.99;98949.77;130249;1267;108610;-73
2022/09/16 10:45:29;;;;;;;4.40;1.40;;;;;;;16.88;64.64;98951.63;130427;1267;108767;-73
2022/09/16 10:48:36;;;;;;;2.70;1.20;;;;;;;16.73;63.77;98964.91;130463;1268;108837;-71
2022/09/16 10:51:43;;;;;;;3.70;1.10;;;;;;;16.49;63.41;98968.55;130324;1267;108833;-71
2022/09/16 10:54:49;;;;;;;3.60;1.20;;;;;;;16.51;64.95;98961.38;130376;1267;108720;-71
2022/09/16 10:58:06;;;;;;;2.20;1.30;;;;;;;16.64;63.79;98959.95;130361;1267;109014;-70
2022/09/16 11:01:30;;;;;;;1.70;1.10;;;;;;;16.67;63.81;98957.96;130413;1267;108822;-70
2022/09/16 11:05:02;;;;;;;2.20;1.00;;;;;;;16.67;62.31;98954.73;130441;1268;108694;-73
2022/09/16 11:08:30;;;;;;;3.10;1.30;;;;;;;16.84;63.74;98949.58;130446;1267;108771;-71
2022/09/16 11:11:51;;;;;;;2.70;1.00;;;;;;;17.16;61.02;98953.05;130393;1267;108549;-71
2022/09/16 11:15:05;;;;;;;1.60;0.80;;;;;;;17.15;61.44;98948.91;130409;1267;108683;-72
2022/09/16 11:18:30;;;;;;;2.70;1.30;;;;;;;17.10;60.11;98946.36;130417;1267;108863;-73
2022/09/16 11:21:49;;;;;;;3.20;1.00;;;;;;;16.97;61.34;98944.87;130414;1267;108504;-72
2022/09/16 11:25:17;;;;;;;1.90;1.00;;;;;;;16.79;62.16;98950.38;130428;1267;108793;-72
2022/09/16 11:28:43;;;;;;;2.90;1.10;;;;;;;16.59;61.30;98946.88;130407;1267;108668;-72
2022/09/16 11:31:58;;;;;;;2.00;1.00;;;;;;;16.55;61.41;98940.52;130402;1267;108174;-72
2022/09/16 11:35:27;;;;;;;2.70;1.30;;;;;;;16.72;61.37;98936.61;130479;1267;108848;-72
2022/09/16 11:38:38;;;;;;;1.70;0.90;;;;;;;16.88;61.00;98930.61;130339;1267;108772;-72
2022/09/16 11:41:55;;;;;;;2.80;1.00;;;;;;;17.04;60.05;98936.57;130396;1267;108910;-71
2022/09/16 11:45:11;;;;;;;2.70;1.00;;;;;;;17.25;58.76;98933.79;130416;1267;108112;-72
2022/09/16 11:48:35;;;;;;;2.20;1.40;;;;;;;17.34;58.42;98929.80;130440;1267;109149;-72
2022/09/16 11:51:58;;;;;;;1.80;1.20;;;;;;;17.35;56.53;98940.55;130326;1267;108667;-71
2022/09/16 11:55:18;;;;;;;3.00;1.10;;;;;;;17.29;57.74;98928.64;130421;1267;108689;-72
2022/09/16 11:58:32;;;;;;;2.00;1.20;;;;;;;17.25;56.20;98933.88;130457;1267;108683;-72
2022/09/16 12:01:43;;;;;;;2.20;0.80;;;;;;;17.27;57.34;98934.06;130394;1267;108859;-72
2022/09/16 12:04:55;;;;;;;2.20;1.20;;;;;;;17.22;56.76;98936.79;130435;1267;108578;-72
2022/09/16 12:08:10;;;;;;;2.00;1.00;;;;;;;17.09;55.39;98942.52;130408;1267;109009;-72
2022/09/16 12:11:23;;;;;;;2.70;1.60;;;;;;;16.90;56.68;98937.67;130412;1267;109057;-72
2022/09/16 12:14:36;;;;;;;1.60;1.00;;;;;;;16.88;57.85;98935.41;130446;1267;109869;-72
2022/09/16 12:17:49;;;;;;;1.80;1.00;;;;;;;16.75;57.85;98932.27;130461;1267;108521;-72
2022/09/16 12:21:04;;;;;;;2.20;1.00;;;;;;;16.53;57.14;98935.18;130304;1268;108626;-74
2022/09/16 12:24:15;;;;;;;3.00;1.00;;;;;;;16.39;58.13;98931.71;130387;1268;108650;-72
2022/09/16 12:27:34;;;;;;;1.80;1.10;;;;;;;16.34;57.55;98928.49;130387;1268;108863;-71
2022/09/16 12:30:45;;;;;;;2.60;1.60;;;;;;;16.32;57.72;98925.91;130424;1268;108766;-71
2022/09/16 12:33:56;;;;;;;2.00;1.10;;;;;;;16.40;58.36;98922.11;130384;1268;108693;-72
2022/09/16 12:37:07;;;;;;;3.10;1.20;;;;;;;16.48;58.59;98917.75;130440;1267;108720;-72
2022/09/16 12:40:19;;;;;;;1.30;1.00;;;;;;;16.61;57.60;98915.27;130440;1267;108785;-71
2022/09/16 12:43:46;;;;;;;1.70;0.90;;;;;;;16.82;57.03;98913.80;130467;1268;108932;-72
2022/09/16 12:47:19;;;;;;;1.60;0.90;;;;;;;17.07;56.50;98908.39;130430;1268;108674;-71
2022/09/16 12:51:03;;;;;;;1.90;1.10;;;;;;;17.24;57.06;98905.28;130393;1268;108557;-71
2022/09/16 12:54:28;;;;;;;2.10;0.70;;;;;;;17.31;57.06;98906.26;130378;1268;108931;-72
2022/09/16 12:57:47;;;;;;;1.50;0.70;;;;;;;17.34;57.24;98907.96;130423;1267;109167;-72
2022/09/16 13:01:01;;;;;;;2.90;0.90;;;;;;;17.55;56.93;98908.71;129084;1268;1786268;-71
2022/09/16 13:04:17;;;;;;;1.40;0.70;;;;;;;17.82;56.63;98910.83;130389;1267;108895;-73
2022/09/16 13:07:26;;;;;;;1.20;0.80;;;;;;;18.05;56.35;98906.39;130398;1268;108768;-72
2022/09/16 13:10:35;;;;;;;2.90;0.80;;;;;;;18.12;55.86;98908.59;130345;1267;108578;-72
2022/09/16 13:13:46;;;;;;;2.70;1.00;;;;;;;18.06;56.12;98904.29;130403;1267;108655;-72
2022/09/16 13:16:55;;;;;;;1.40;0.80;;;;;;;17.92;56.49;98907.80;130406;1268;108911;-73
2022/09/16 13:20:13;;;;;;;3.10;1.00;;;;;;;17.84;55.65;98906.48;130427;1268;108811;-73
2022/09/16 13:23:23;;;;;;;1.70;0.90;;;;;;;17.76;56.69;98904.52;130288;1268;108870;-71
2022/09/16 13:26:40;;;;;;;1.60;1.00;;;;;;;17.71;56.56;98898.75;130351;1267;109687;-71
2022/09/16 13:29:45;;;;;;;1.10;0.70;;;;;;;17.64;56.74;98894.09;130353;1267;108617;-72
2022/09/16 13:33:02;;;;;;;1.90;0.80;;;;;;;17.57;56.75;98888.23;130462;1268;108701;-71
2022/09/16 13:36:31;;;;;;;1.70;0.90;;;;;;;17.51;56.64;98896.70;130516;1267;108828;-72
2022/09/16 13:39:37;;;;;;;1.90;0.90;;;;;;;17.49;56.93;98898.89;130437;1268;108617;-71
2022/09/16 13:42:42;;;;;;;1.90;0.80;;;;;;;17.38;56.89;98898.84;130481;1267;108533;-71
2022/09/16 13:45:48;;;;;;;3.30;1.10;;;;;;;17.30;56.72;98901.75;130457;1268;109034;-70
2022/09/16 13:48:58;;;;;;;2.90;1.40;;;;;;;17.23;56.81;98904.88;130419;1268;108958;-72
2022/09/16 13:52:11;;;;;;;2.90;1.50;;;;;;;17.14;56.49;98902.39;130504;1267;108566;-75
2022/09/16 13:55:23;;;;;;;2.60;1.30;;;;;;;17.02;56.22;98894.91;130459;1268;108743;-75
2022/09/16 13:58:35;;;;;;;1.90;1.20;;;;;;;16.91;56.48;98893.67;130411;1268;108607;-70
2022/09/16 14:01:50;;;;;;;2.90;1.50;;;;;;;16.82;56.31;98896.23;130270;1268;108637;-71
2022/09/16 14:05:13;;;;;;;2.90;1.50;;;;;;;16.75;56.49;98900.27;130424;1268;108719;-71
2022/09/16 14:08:27;;;;;;;3.00;1.20;;;;;;;16.70;56.73;98899.02;130256;1267;108873;-71
2022/09/16 14:11:41;;;;;;;2.60;1.40;;;;;;;16.64;56.97;98897.31;130413;1268;108732;-71
2022/09/16 14:14:47;;;;;;;2.10;1.40;;;;;;;16.64;57.11;98897.48;130436;1267;108681;-71
2022/09/16 14:17:56;;;;;;;3.30;1.60;;;;;;;16.78;57.39;98898.48;130619;1267;108627;-72
2022/09/16 14:21:04;;;;;;;2.80;1.40;;;;;;;16.87;57.40;98898.98;130402;1268;108777;-71
2022/09/16 14:24:21;;;;;;;1.80;1.50;;;;;;;16.86;57.37;98896.80;130466;1268;109131;-71
2022/09/16 14:27:33;;;;;;;1.80;1.50;;;;;;;16.86;57.65;98892.55;130311;1268;108902;-71
2022/09/16 14:30:44;;;;;;;2.30;1.30;;;;;;;16.83;57.87;98891.21;130309;1268;108826;-70
2022/09/16 14:33:53;;;;;;;2.80;1.70;;;;;;;16.79;57.59;98900.27;130386;1268;108848;-70
2022/09/16 14:36:59;;;;;;;2.30;1.40;;;;;;;16.74;57.76;98897.44;130410;1267;109662;-72